createdAt,value
2023-01-24T00:01:10.902Z,95.50
2023-01-24T00:03:37.944Z,95.50
2023-01-24T00:06:05.139Z,95.40
2023-01-24T00:08:32.065Z,95.40
2023-01-24T00:11:04.626Z,95.40
2023-01-24T00:13:32.677Z,95.40
2023-01-24T00:16:20.690Z,95.40
2023-01-24T00:18:48.937Z,95.40
2023-01-24T00:21:23.484Z,95.40
2023-01-24T00:23:55.605Z,95.40
2023-01-24T00:26:24.692Z,95.40
2023-01-24T00:28:53.991Z,95.40
2023-01-24T00:31:26.111Z,95.50
2023-01-24T00:33:54.915Z,95.50
2023-01-24T00:36:21.848Z,95.50
2023-01-24T00:38:48.909Z,95.50
2023-01-24T00:41:15.902Z,95.50
2023-01-24T00:43:42.827Z,95.40
2023-01-24T00:46:10.493Z,95.40
2023-01-24T00:48:37.576Z,95.40
2023-01-24T00:51:05.139Z,95.40
2023-01-24T00:53:32.293Z,95.30
2023-01-24T00:55:59.251Z,95.30
2023-01-24T00:58:26.388Z,95.30
2023-01-24T01:00:56.973Z,95.30
2023-01-24T01:03:26.478Z,95.30
2023-01-24T01:06:01.746Z,95.30
2023-01-24T01:08:28.824Z,95.30
2023-01-24T01:10:55.997Z,95.30
2023-01-24T01:13:26.330Z,95.30
2023-01-24T01:16:17.409Z,95.20
2023-01-24T01:18:46.053Z,95.20
2023-01-24T01:21:15.166Z,95.30
2023-01-24T01:23:42.385Z,95.30
2023-01-24T01:26:15.392Z,95.30
2023-01-24T01:28:42.615Z,95.30
2023-01-24T01:31:09.821Z,95.30
2023-01-24T01:33:36.997Z,95.30
2023-01-24T01:36:04.315Z,95.20
2023-01-24T01:38:31.764Z,95.20
2023-01-24T01:40:59.451Z,95.20
2023-01-24T01:43:29.445Z,95.20
2023-01-24T01:46:21.069Z,95.20
2023-01-24T01:49:06.998Z,95.20
2023-01-24T01:51:42.356Z,95.20
2023-01-24T01:54:14.954Z,95.50
2023-01-24T01:56:44.133Z,95.30
2023-01-24T01:59:18.222Z,95.30
2023-01-24T02:01:46.510Z,95.30
2023-01-24T02:04:24.590Z,95.20
2023-01-24T02:07:18.215Z,95.20
2023-01-24T02:09:50.163Z,95.20
2023-01-24T02:12:31.766Z,95.30
2023-01-24T02:15:31.311Z,95.30
2023-01-24T02:18:00.796Z,95.30
2023-01-24T02:20:40.144Z,95.30
2023-01-24T02:23:44.492Z,95.30
2023-01-24T02:26:26.230Z,95.30
2023-01-24T02:28:55.649Z,95.40
2023-01-24T02:31:26.185Z,95.40
2023-01-24T02:33:56.384Z,95.40
2023-01-24T02:36:36.869Z,95.40
2023-01-24T02:39:13.077Z,95.40
2023-01-24T02:41:50.293Z,95.40
2023-01-24T02:44:49.281Z,95.40
2023-01-24T02:47:16.739Z,95.40
2023-01-24T02:49:43.748Z,95.40
2023-01-24T02:52:29.833Z,95.40
2023-01-24T02:54:57.032Z,95.40
2023-01-24T02:57:44.813Z,95.50
2023-01-24T03:00:12.395Z,95.50
2023-01-24T03:02:39.761Z,95.50
2023-01-24T03:05:07.337Z,95.50
2023-01-24T03:07:44.221Z,95.50
2023-01-24T03:10:20.069Z,95.50
2023-01-24T03:13:10.111Z,95.50
2023-01-24T03:15:55.734Z,95.50
2023-01-24T03:18:41.578Z,95.50
2023-01-24T03:21:27.443Z,95.50
2023-01-24T03:24:12.863Z,95.50
2023-01-24T03:26:58.291Z,95.80
2023-01-24T03:29:43.849Z,95.50
2023-01-24T03:32:30.272Z,95.50
2023-01-24T03:34:57.374Z,95.50
2023-01-24T03:37:48.001Z,95.50
2023-01-24T03:40:17.433Z,95.60
2023-01-24T03:42:49.504Z,95.60
2023-01-24T03:45:31.033Z,95.60
2023-01-24T03:48:00.486Z,95.60
2023-01-24T03:50:48.726Z,95.60
2023-01-24T03:53:16.462Z,95.60
2023-01-24T03:55:46.789Z,95.60
2023-01-24T03:58:15.846Z,95.60
2023-01-24T04:00:42.955Z,95.60
2023-01-24T04:03:26.594Z,95.60
2023-01-24T04:05:56.746Z,95.60
2023-01-24T04:08:26.566Z,95.60
2023-01-24T04:10:57.484Z,95.60
2023-01-24T04:13:25.222Z,95.60
2023-01-24T04:15:52.113Z,95.60
2023-01-24T04:18:44.056Z,95.60
2023-01-24T04:21:11.062Z,95.60
2023-01-24T04:23:39.262Z,95.60
2023-01-24T04:26:06.333Z,95.60
2023-01-24T04:28:34.236Z,95.60
2023-01-24T04:31:04.214Z,95.60
2023-01-24T04:34:03.776Z,95.60
2023-01-24T04:36:33.344Z,95.70
2023-01-24T04:39:01.710Z,95.70
2023-01-24T04:41:34.857Z,95.70
2023-01-24T04:44:02.362Z,95.60
2023-01-24T04:46:29.600Z,95.70
2023-01-24T04:48:57.270Z,95.70
2023-01-24T04:51:51.302Z,95.70
2023-01-24T04:54:24.579Z,95.70
2023-01-24T04:56:52.329Z,95.70
2023-01-24T04:59:23.023Z,95.70
2023-01-24T05:01:51.113Z,95.70
2023-01-24T05:04:33.351Z,95.70
2023-01-24T05:07:00.389Z,95.80
2023-01-24T05:09:27.562Z,96.00
2023-01-24T05:12:00.743Z,95.70
2023-01-24T05:14:28.965Z,95.70
2023-01-24T05:16:56.233Z,95.70
2023-01-24T05:19:26.560Z,95.80
2023-01-24T05:21:56.779Z,95.80
2023-01-24T05:24:26.668Z,95.80
2023-01-24T05:26:55.931Z,95.80
2023-01-24T05:29:26.757Z,95.80
2023-01-24T05:31:55.735Z,95.80
2023-01-24T05:34:22.743Z,95.80
2023-01-24T05:36:49.692Z,95.80
2023-01-24T05:39:16.931Z,95.80
2023-01-24T05:41:45.740Z,96.00
2023-01-24T05:44:14.602Z,95.80
2023-01-24T05:46:42.755Z,95.70
2023-01-24T05:49:20.253Z,95.80
2023-01-24T05:51:48.527Z,95.80
2023-01-24T05:54:26.673Z,95.80
2023-01-24T05:57:05.234Z,95.80
2023-01-24T05:59:52.137Z,95.80
2023-01-24T06:02:25.113Z,95.80
2023-01-24T06:04:52.145Z,95.80
2023-01-24T06:07:19.095Z,95.80
2023-01-24T06:09:46.246Z,95.80
2023-01-24T06:12:13.515Z,95.80
2023-01-24T06:14:41.467Z,95.80
2023-01-24T06:17:08.393Z,96.00
2023-01-24T06:19:35.853Z,95.80
2023-01-24T06:22:26.336Z,95.70
2023-01-24T06:24:54.736Z,95.70
2023-01-24T06:27:27.170Z,95.80
2023-01-24T06:29:57.497Z,95.80
2023-01-24T06:32:40.244Z,95.70
2023-01-24T06:35:41.549Z,95.70
2023-01-24T06:38:19.539Z,95.70
2023-01-24T06:40:47.283Z,95.70
2023-01-24T06:43:14.600Z,95.80
2023-01-24T06:45:42.230Z,95.70
2023-01-24T06:48:09.217Z,95.80
2023-01-24T06:50:36.549Z,95.70
2023-01-24T06:53:03.556Z,95.80
2023-01-24T06:55:31.228Z,95.80
2023-01-24T06:58:00.063Z,95.80
2023-01-24T07:00:29.365Z,95.80
2023-01-24T07:02:59.963Z,95.80
2023-01-24T07:05:28.018Z,95.80
2023-01-24T07:07:55.502Z,95.80
2023-01-24T07:10:24.999Z,95.80
2023-01-24T07:12:54.565Z,95.80
2023-01-24T07:15:21.994Z,95.80
2023-01-24T07:17:49.909Z,95.80
2023-01-24T07:20:17.487Z,95.80
2023-01-24T07:22:44.948Z,95.80
2023-01-24T07:25:18.341Z,95.90
2023-01-24T07:27:46.305Z,95.90
2023-01-24T07:30:14.253Z,95.90
2023-01-24T07:32:41.348Z,95.90
2023-01-24T07:35:08.710Z,95.90
2023-01-24T07:37:35.824Z,95.80
2023-01-24T07:40:03.636Z,95.80
2023-01-24T07:42:30.695Z,95.80
2023-01-24T07:44:57.986Z,95.80
2023-01-24T07:47:27.308Z,95.80
2023-01-24T07:49:58.073Z,95.80
2023-01-24T07:52:25.154Z,95.90
2023-01-24T07:54:52.133Z,95.90
2023-01-24T07:57:19.179Z,95.80
2023-01-24T07:59:46.239Z,95.80
2023-01-24T08:02:13.486Z,95.80
2023-01-24T08:04:40.587Z,95.80
2023-01-24T08:07:19.802Z,95.80
2023-01-24T08:09:48.197Z,95.80
2023-01-24T08:12:16.057Z,95.80
2023-01-24T08:14:43.230Z,95.80
2023-01-24T08:17:11.039Z,95.80
2023-01-24T08:19:56.054Z,95.80
2023-01-24T08:22:26.279Z,95.80
2023-01-24T08:24:56.332Z,95.80
2023-01-24T08:27:23.483Z,95.80
2023-01-24T08:29:50.505Z,95.80
2023-01-24T08:32:17.795Z,95.80
2023-01-24T08:34:47.762Z,95.80
2023-01-24T08:37:14.839Z,95.80
2023-01-24T08:39:41.899Z,95.70
2023-01-24T08:42:09.754Z,95.70
2023-01-24T08:44:36.899Z,95.70
2023-01-24T08:47:03.906Z,95.70
2023-01-24T08:49:30.888Z,95.70
2023-01-24T08:52:00.436Z,95.70
2023-01-24T08:54:28.730Z,95.70
2023-01-24T08:56:56.228Z,95.70
2023-01-24T08:59:23.515Z,95.70
2023-01-24T09:01:50.736Z,95.70
2023-01-24T09:04:17.931Z,95.70
2023-01-24T09:06:44.968Z,95.70
2023-01-24T09:09:12.632Z,95.70
2023-01-24T09:11:39.643Z,95.60
2023-01-24T09:14:09.331Z,95.60
2023-01-24T09:16:36.557Z,95.60
2023-01-24T09:19:03.699Z,95.60
2023-01-24T09:21:30.800Z,95.60
2023-01-24T09:23:57.773Z,95.60
2023-01-24T09:26:24.930Z,95.60
2023-01-24T09:28:52.057Z,95.60
2023-01-24T09:31:19.118Z,95.60
2023-01-24T09:33:58.617Z,95.60
2023-01-24T09:36:27.021Z,95.60
2023-01-24T09:39:05.933Z,95.60
2023-01-24T09:41:42.396Z,95.50
2023-01-24T09:44:41.400Z,95.50
2023-01-24T09:47:19.161Z,95.50
2023-01-24T09:50:11.133Z,95.50
2023-01-24T09:52:45.245Z,95.50
2023-01-24T09:55:25.093Z,95.50
2023-01-24T09:57:56.767Z,95.70
2023-01-24T10:00:27.532Z,95.50
2023-01-24T10:03:00.619Z,95.40
2023-01-24T10:05:39.824Z,95.40
2023-01-24T10:08:23.951Z,95.40
2023-01-24T10:11:29.596Z,95.40
2023-01-24T10:14:14.110Z,95.30
2023-01-24T10:17:06.154Z,95.30
2023-01-24T10:19:50.982Z,95.30
2023-01-24T10:23:05.035Z,95.30
2023-01-24T10:26:02.853Z,95.20
2023-01-24T10:28:36.067Z,95.30
2023-01-24T10:31:08.788Z,95.30
2023-01-24T10:33:42.634Z,95.20
2023-01-24T10:36:20.769Z,95.20
2023-01-24T10:38:47.865Z,95.20
2023-01-24T10:41:21.806Z,95.20
2023-01-24T10:44:16.726Z,95.20
2023-01-24T10:47:00.787Z,95.20
2023-01-24T10:49:37.488Z,95.20
2023-01-24T10:52:22.180Z,95.10
2023-01-24T10:54:57.851Z,95.10
2023-01-24T10:57:45.137Z,95.10
2023-01-24T11:00:32.095Z,95.10
2023-01-24T11:03:20.718Z,95.10
2023-01-24T11:05:56.790Z,95.10
2023-01-24T11:08:37.906Z,95.10
2023-01-24T11:11:21.427Z,95.10
2023-01-24T11:13:50.736Z,95.00
2023-01-24T11:16:18.576Z,95.10
2023-01-24T11:18:55.058Z,95.00
2023-01-24T11:21:22.429Z,95.00
2023-01-24T11:24:01.896Z,95.00
2023-01-24T11:26:31.389Z,94.90
2023-01-24T11:29:04.102Z,94.90
2023-01-24T11:31:38.053Z,94.90
2023-01-24T11:34:42.596Z,94.90
2023-01-24T11:37:12.599Z,94.90
2023-01-24T11:39:56.395Z,94.90
2023-01-24T11:42:42.428Z,94.80
2023-01-24T11:45:18.407Z,94.80
2023-01-24T11:47:54.204Z,94.80
2023-01-24T11:50:30.035Z,94.70
2023-01-24T11:53:18.511Z,94.70
2023-01-24T11:56:15.154Z,94.70
2023-01-24T11:58:50.952Z,94.70
2023-01-24T12:01:54.823Z,94.70
2023-01-24T12:04:40.568Z,94.60
2023-01-24T12:07:13.728Z,94.60
2023-01-24T12:09:46.776Z,94.60
2023-01-24T12:12:58.035Z,94.60
2023-01-24T12:15:33.080Z,94.50
2023-01-24T12:18:09.234Z,94.60
2023-01-24T12:21:05.649Z,94.60
2023-01-24T12:23:41.734Z,94.50
2023-01-24T12:26:37.215Z,94.40
2023-01-24T12:29:16.932Z,94.40
2023-01-24T12:31:51.093Z,94.40
2023-01-24T12:34:34.786Z,94.40
2023-01-24T12:37:20.370Z,94.40
2023-01-24T12:40:16.356Z,94.40
2023-01-24T12:43:18.556Z,94.40
2023-01-24T12:46:03.342Z,94.50
2023-01-24T12:48:37.231Z,94.50
2023-01-24T12:51:33.690Z,94.50
2023-01-24T12:54:23.132Z,94.40
2023-01-24T12:56:54.432Z,94.50
2023-01-24T12:59:29.146Z,94.50
2023-01-24T13:02:24.188Z,94.50
2023-01-24T13:05:16.072Z,94.50
2023-01-24T13:08:19.462Z,94.50
2023-01-24T13:10:58.465Z,94.50
2023-01-24T13:13:32.375Z,94.50
2023-01-24T13:16:21.223Z,94.50
2023-01-24T13:18:57.022Z,94.40
2023-01-24T13:21:47.835Z,94.50
2023-01-24T13:24:41.863Z,94.40
2023-01-24T13:27:37.904Z,94.40
2023-01-24T13:30:50.637Z,94.40
2023-01-24T13:33:27.235Z,94.30
2023-01-24T13:35:57.316Z,94.40
2023-01-24T13:38:28.804Z,94.40
2023-01-24T13:41:07.998Z,94.40
2023-01-24T13:43:40.613Z,94.30
2023-01-24T13:46:07.758Z,94.40
2023-01-24T13:48:40.969Z,94.40
2023-01-24T13:51:33.253Z,94.40
2023-01-24T13:54:02.905Z,94.40
2023-01-24T13:56:30.371Z,94.40
2023-01-24T13:58:59.138Z,94.40
2023-01-24T14:01:27.630Z,94.40
2023-01-24T14:04:01.917Z,94.40
2023-01-24T14:06:46.150Z,94.70
2023-01-24T14:09:26.631Z,94.40
2023-01-24T14:11:59.333Z,94.40
2023-01-24T14:14:33.349Z,94.50
2023-01-24T14:17:21.701Z,94.50
2023-01-24T14:19:49.194Z,94.50
2023-01-24T14:22:22.447Z,94.50
2023-01-24T14:25:28.560Z,94.50
2023-01-24T14:28:02.049Z,94.50
2023-01-24T14:30:41.030Z,94.60
2023-01-24T14:33:43.688Z,94.60
2023-01-24T14:36:33.980Z,94.60
2023-01-24T14:39:20.630Z,94.50
2023-01-24T14:41:50.308Z,94.50
2023-01-24T14:44:38.352Z,94.60
2023-01-24T14:47:22.001Z,94.50
2023-01-24T14:49:54.163Z,94.50
2023-01-24T14:52:27.498Z,94.60
2023-01-24T14:55:00.690Z,94.60
2023-01-24T14:57:32.358Z,94.60
2023-01-24T15:00:12.065Z,94.60
2023-01-24T15:02:50.695Z,94.60
2023-01-24T15:05:29.123Z,94.70
2023-01-24T15:08:01.388Z,94.70
2023-01-24T15:10:55.838Z,94.70
2023-01-24T15:13:37.743Z,94.70
2023-01-24T15:16:06.014Z,94.70
2023-01-24T15:18:41.635Z,94.80
2023-01-24T15:21:34.609Z,94.80
2023-01-24T15:24:03.148Z,94.80
2023-01-24T15:26:31.987Z,94.80
2023-01-24T15:28:59.176Z,94.80
2023-01-24T15:31:30.782Z,94.80
2023-01-24T15:34:00.451Z,94.80
2023-01-24T15:36:34.343Z,94.80
2023-01-24T15:39:02.776Z,94.80
2023-01-24T15:41:55.785Z,94.80
2023-01-24T15:44:24.507Z,94.80
2023-01-24T15:47:17.175Z,94.90
2023-01-24T15:50:01.373Z,94.80
2023-01-24T15:52:28.773Z,94.80
2023-01-24T15:55:01.710Z,94.90
2023-01-24T15:57:38.932Z,94.90
2023-01-24T16:00:09.076Z,94.90
2023-01-24T16:02:39.537Z,94.90
2023-01-24T16:05:18.520Z,94.90
2023-01-24T16:07:46.126Z,94.90
2023-01-24T16:10:17.227Z,94.90
2023-01-24T16:12:46.393Z,94.90
2023-01-24T16:15:19.408Z,95.00
2023-01-24T16:17:46.714Z,95.00
2023-01-24T16:20:24.628Z,95.00
2023-01-24T16:22:51.898Z,95.00
2023-01-24T16:25:20.397Z,95.00
2023-01-24T16:27:48.686Z,95.00
2023-01-24T16:30:26.422Z,95.00
2023-01-24T16:32:55.611Z,94.90
2023-01-24T16:35:23.075Z,95.00
2023-01-24T16:37:50.417Z,95.00
2023-01-24T16:40:19.020Z,95.00
2023-01-24T16:42:47.723Z,95.00
2023-01-24T16:45:18.106Z,95.00
2023-01-24T16:47:48.605Z,95.00
2023-01-24T16:50:17.441Z,95.00
2023-01-24T16:52:44.771Z,95.00
2023-01-24T16:55:12.144Z,95.00
2023-01-24T16:57:39.469Z,95.00
2023-01-24T17:00:13.614Z,95.00
2023-01-24T17:02:42.439Z,95.00
2023-01-24T17:05:10.676Z,95.00
2023-01-24T17:07:37.886Z,95.10
2023-01-24T17:10:05.940Z,95.10
2023-01-24T17:12:33.516Z,95.10
2023-01-24T17:15:01.887Z,95.10
2023-01-24T17:17:29.139Z,95.10
2023-01-24T17:20:01.384Z,95.10
2023-01-24T17:22:31.363Z,95.10
2023-01-24T17:25:01.708Z,95.10
2023-01-24T17:27:29.151Z,95.10
2023-01-24T17:29:56.965Z,95.10
2023-01-24T17:32:29.587Z,95.20
2023-01-24T17:35:05.589Z,95.10
2023-01-24T17:37:32.849Z,95.10
2023-01-24T17:40:00.232Z,95.10
2023-01-24T17:42:31.203Z,95.10
2023-01-24T17:45:00.677Z,95.00
2023-01-24T17:47:30.913Z,95.00
2023-01-24T17:50:00.097Z,95.10
2023-01-24T17:52:27.198Z,95.10
2023-01-24T17:54:54.525Z,95.10
2023-01-24T17:57:22.101Z,95.10
2023-01-24T18:02:54.129Z,95.00
2023-01-24T18:05:21.401Z,95.40
2023-01-24T18:07:48.305Z,95.10
2023-01-24T18:10:15.535Z,95.10
2023-01-24T18:12:50.947Z,95.10
2023-01-24T18:15:26.999Z,95.10
2023-01-24T18:19:25.989Z,95.10
2023-01-24T19:39:30.912Z,95.10
2023-01-24T19:42:11.947Z,95.10
2023-01-24T19:45:19.786Z,95.20
2023-01-24T20:04:31.040Z,95.20
2023-01-24T20:07:32.682Z,95.20
2023-01-24T20:09:57.937Z,95.30
2023-01-24T20:12:29.402Z,95.20
2023-01-24T20:19:31.565Z,95.20
2023-01-24T20:22:06.830Z,95.50
2023-01-24T20:24:37.134Z,95.20
2023-01-24T20:27:08.555Z,95.20
2023-01-24T20:33:20.147Z,95.20
2023-01-24T20:45:41.879Z,95.20
2023-01-24T20:49:18.673Z,95.30
2023-01-24T20:52:52.615Z,95.30
2023-01-24T20:59:58.977Z,95.20
2023-01-24T21:03:01.924Z,95.30
2023-01-24T21:22:26.787Z,95.30
2023-01-24T21:25:07.086Z,95.30
2023-01-24T21:27:36.762Z,95.30
2023-01-24T21:30:43.960Z,95.30
2023-01-24T21:33:18.877Z,95.30
2023-01-24T21:35:48.506Z,95.40
2023-01-24T21:38:28.544Z,95.40
2023-01-24T21:41:20.363Z,95.40
2023-01-24T21:43:48.068Z,95.40
2023-01-24T21:46:15.999Z,95.30
2023-01-24T21:49:02.129Z,95.30
2023-01-24T21:51:33.348Z,95.30
2023-01-24T21:54:03.091Z,95.30
2023-01-24T21:56:52.245Z,95.30
2023-01-24T21:59:20.889Z,95.30
2023-01-24T22:01:49.997Z,95.30
2023-01-24T22:04:19.863Z,95.30
2023-01-24T22:06:47.269Z,95.30
2023-01-24T22:09:16.661Z,95.30
2023-01-24T22:11:45.591Z,95.30
2023-01-24T22:14:16.089Z,95.30
2023-01-24T22:16:57.540Z,95.20
2023-01-24T22:19:36.206Z,95.30
2023-01-24T22:22:13.146Z,95.30
2023-01-24T22:24:43.008Z,95.30
2023-01-24T22:27:25.808Z,95.30
2023-01-24T22:29:56.634Z,95.30
2023-01-24T22:32:42.441Z,95.30
2023-01-24T22:35:21.592Z,95.30
2023-01-24T22:41:57.769Z,95.30
2023-01-24T22:44:25.206Z,95.30
2023-01-24T22:46:52.318Z,95.30
2023-01-24T22:49:19.409Z,95.30
2023-01-24T22:51:46.549Z,95.30
2023-01-24T22:54:14.057Z,95.30
2023-01-24T22:56:43.803Z,95.30
2023-01-24T22:59:11.026Z,95.20
2023-01-24T23:01:38.239Z,95.30
2023-01-24T23:04:11.671Z,95.30
2023-01-24T23:06:39.019Z,95.30
2023-01-24T23:09:06.671Z,95.30
2023-01-24T23:11:34.483Z,95.30
2023-01-24T23:14:28.780Z,95.30
2023-01-24T23:17:07.088Z,95.30
2023-01-24T23:20:47.652Z,95.30
2023-01-24T23:23:50.587Z,95.20
2023-01-24T23:26:17.706Z,95.20
2023-01-24T23:29:14.167Z,95.30
2023-01-24T23:36:17.795Z,95.20
2023-01-24T23:38:50.090Z,95.30
2023-01-24T23:41:43.455Z,95.30
2023-01-24T23:44:11.927Z,95.20
2023-01-24T23:46:47.803Z,95.30
2023-01-24T23:49:17.667Z,95.30
2023-01-24T23:51:57.305Z,95.30
2023-01-24T23:54:36.111Z,95.30
2023-01-24T23:57:33.690Z,95.30
